createdAt,value
2023-03-31T00:00:29.894Z,99854.11
2023-03-31T00:04:08.500Z,99852.91
2023-03-31T00:07:46.294Z,99844.88
2023-03-31T00:11:23.081Z,99843.84
2023-03-31T00:15:00.121Z,99845.92
2023-03-31T00:18:40.956Z,99845.04
2023-03-31T00:22:18.992Z,99842.80
2023-03-31T00:25:54.916Z,99839.38
2023-03-31T00:33:09.588Z,99849.41
2023-03-31T00:36:47.865Z,99846.97
2023-03-31T00:40:24.172Z,99837.04
2023-03-31T00:44:30.650Z,99838.08
2023-03-31T00:47:53.600Z,99832.33
2023-03-31T00:51:24.948Z,99826.75
2023-03-31T00:55:07.785Z,99821.70
2023-03-31T00:58:44.042Z,99823.96
2023-03-31T01:02:18.391Z,99825.71
2023-03-31T01:05:58.210Z,99831.13
2023-03-31T01:09:35.282Z,99835.13
2023-03-31T01:13:12.043Z,99832.34
2023-03-31T01:16:47.000Z,99830.42
2023-03-31T01:21:18.872Z,99829.38
2023-03-31T01:25:01.869Z,99831.98
2023-03-31T01:28:18.377Z,99830.42
2023-03-31T01:32:11.689Z,99827.10
2023-03-31T01:35:48.861Z,99833.38
2023-03-31T01:39:33.723Z,99838.44
2023-03-31T01:42:51.326Z,99843.14
2023-03-31T01:46:30.708Z,99838.95
2023-03-31T01:50:07.154Z,99835.30
2023-03-31T01:53:41.832Z,99830.41
2023-03-31T01:57:34.602Z,99835.65
2023-03-31T02:01:06.033Z,99828.50
2023-03-31T02:04:42.487Z,99827.30
2023-03-31T02:08:21.704Z,99824.67
2023-03-31T02:11:52.172Z,99821.01
2023-03-31T02:15:33.461Z,99820.14
2023-03-31T02:19:07.078Z,99821.02
2023-03-31T02:22:48.330Z,99819.10
2023-03-31T02:26:53.501Z,99823.28
2023-03-31T02:29:59.301Z,99823.45
2023-03-31T02:33:36.220Z,99823.63
2023-03-31T02:37:13.912Z,99826.77
2023-03-31T02:40:51.841Z,99820.48
2023-03-31T02:44:48.118Z,99814.57
2023-03-31T02:48:12.153Z,99815.60
2023-03-31T02:52:13.431Z,99809.34
2023-03-31T02:55:52.025Z,99805.67
2023-03-31T02:59:26.354Z,99804.80
2023-03-31T03:03:15.841Z,99806.37
2023-03-31T03:06:58.028Z,99801.31
2023-03-31T03:10:11.973Z,99802.02
2023-03-31T03:13:57.051Z,99800.13
2023-03-31T03:17:23.440Z,99798.52
2023-03-31T03:20:53.501Z,99798.88
2023-03-31T03:24:34.658Z,99791.26
2023-03-31T03:28:08.799Z,99784.79
2023-03-31T03:31:46.205Z,99782.00
2023-03-31T03:35:23.636Z,99786.35
2023-03-31T03:39:02.040Z,99791.73
2023-03-31T03:42:39.069Z,99793.84
2023-03-31T03:46:17.007Z,99793.48
2023-03-31T03:49:54.462Z,99788.79
2023-03-31T03:53:32.659Z,99789.66
2023-03-31T03:57:09.978Z,99790.34
2023-03-31T04:00:48.264Z,99787.39
2023-03-31T04:04:25.030Z,99787.04
2023-03-31T04:08:03.211Z,99779.02
2023-03-31T04:11:40.568Z,99777.29
2023-03-31T04:15:18.093Z,99782.16
2023-03-31T04:18:59.697Z,99776.43
2023-03-31T04:22:41.264Z,99775.03
2023-03-31T04:26:11.118Z,99771.02
2023-03-31T04:29:55.109Z,99766.66
2023-03-31T04:33:26.593Z,99768.59
2023-03-31T04:37:04.641Z,99764.75
2023-03-31T04:40:41.769Z,99758.84
2023-03-31T04:44:19.805Z,99757.27
2023-03-31T04:47:57.203Z,99754.48
2023-03-31T04:51:34.880Z,99749.42
2023-03-31T04:55:12.535Z,99745.77
2023-03-31T04:58:50.433Z,99741.56
2023-03-31T05:02:27.743Z,99738.80
2023-03-31T05:06:06.406Z,99737.74
2023-03-31T05:09:43.335Z,99733.39
2023-03-31T05:13:21.310Z,99729.38
2023-03-31T05:16:59.386Z,99718.94
2023-03-31T05:20:37.909Z,99717.34
2023-03-31T05:24:15.995Z,99715.77
2023-03-31T05:27:51.462Z,99720.48
2023-03-31T05:31:29.543Z,99724.30
2023-03-31T05:35:07.838Z,99716.98
2023-03-31T05:38:45.023Z,99715.42
2023-03-31T05:42:22.475Z,99714.02
2023-03-31T05:46:00.683Z,99715.40
2023-03-31T05:49:38.868Z,99712.96
2023-03-31T05:53:17.867Z,99712.42
2023-03-31T05:56:52.884Z,99713.61
2023-03-31T06:00:31.973Z,99714.80
2023-03-31T06:04:08.670Z,99712.55
2023-03-31T06:07:45.874Z,99710.44
2023-03-31T06:11:24.093Z,99709.20
2023-03-31T06:15:01.658Z,99712.30
2023-03-31T06:18:40.146Z,99708.65
2023-03-31T06:22:16.974Z,99709.34
2023-03-31T06:25:55.024Z,99707.08
2023-03-31T06:29:32.162Z,99709.70
2023-03-31T06:33:10.450Z,99706.73
2023-03-31T06:36:47.373Z,99703.77
2023-03-31T06:40:25.925Z,99703.95
2023-03-31T06:44:02.664Z,99705.34
2023-03-31T06:47:41.704Z,99708.11
2023-03-31T06:51:19.152Z,99704.98
2023-03-31T06:54:56.009Z,99701.85
2023-03-31T06:58:33.908Z,99703.94
2023-03-31T07:02:11.274Z,99700.30
2023-03-31T07:05:51.051Z,99701.70
2023-03-31T07:09:26.389Z,99707.24
2023-03-31T07:13:05.710Z,99703.25
2023-03-31T07:16:41.946Z,99703.77
2023-03-31T07:20:20.678Z,99705.67
2023-03-31T07:23:57.628Z,99708.27
2023-03-31T07:27:35.835Z,99708.98
2023-03-31T07:31:13.676Z,99710.40
2023-03-31T07:34:50.901Z,99710.03
2023-03-31T07:38:29.101Z,99706.87
2023-03-31T07:42:06.350Z,99708.08
2023-03-31T07:45:43.206Z,99705.64
2023-03-31T07:49:21.389Z,99708.98
2023-03-31T07:52:58.613Z,99711.59
2023-03-31T07:56:36.767Z,99712.61
2023-03-31T08:00:16.123Z,99717.30
2023-03-31T08:03:54.656Z,99716.09
2023-03-31T08:07:31.173Z,99716.24
2023-03-31T08:11:07.620Z,99711.36
2023-03-31T08:14:44.832Z,99711.17
2023-03-31T08:18:22.862Z,99705.73
2023-03-31T08:22:00.130Z,99701.33
2023-03-31T08:25:38.793Z,99695.51
2023-03-31T08:29:15.789Z,99691.45
2023-03-31T08:32:53.235Z,99692.98
2023-03-31T08:36:31.601Z,99691.39
2023-03-31T08:40:19.423Z,99691.88
2023-03-31T08:43:48.893Z,99685.39
2023-03-31T08:47:26.939Z,99685.17
2023-03-31T08:51:21.966Z,99683.21
2023-03-31T08:54:47.273Z,99680.52
2023-03-31T08:58:41.385Z,99678.92
2023-03-31T09:02:32.470Z,99679.23
2023-03-31T09:06:15.125Z,99678.02
2023-03-31T09:09:29.000Z,99680.43
2023-03-31T09:13:12.816Z,99681.62
2023-03-31T09:16:56.935Z,99682.82
2023-03-31T09:20:37.033Z,99679.27
2023-03-31T09:23:57.417Z,99682.52
2023-03-31T09:27:28.444Z,99684.03
2023-03-31T09:31:13.851Z,99680.31
2023-03-31T09:34:40.170Z,99677.64
2023-03-31T09:38:18.178Z,99680.09
2023-03-31T09:41:56.063Z,99680.96
2023-03-31T09:45:36.953Z,99683.56
2023-03-31T09:49:18.243Z,99682.35
2023-03-31T09:52:56.771Z,99684.79
2023-03-31T09:56:54.201Z,99681.29
2023-03-31T10:00:21.039Z,99682.85
2023-03-31T10:03:54.739Z,99681.61
2023-03-31T10:07:25.234Z,99682.14
2023-03-31T10:11:09.389Z,99683.20
2023-03-31T10:14:35.196Z,99679.19
2023-03-31T10:18:19.174Z,99684.27
2023-03-31T10:22:03.966Z,99686.35
2023-03-31T10:25:28.998Z,99684.46
2023-03-31T10:29:21.469Z,99687.59
2023-03-31T10:32:44.037Z,99682.63
2023-03-31T10:36:29.651Z,99683.45
2023-03-31T10:40:03.522Z,99679.67
2023-03-31T10:43:36.041Z,99675.23
2023-03-31T10:47:13.950Z,99676.44
2023-03-31T10:50:51.269Z,99681.55
2023-03-31T10:54:29.150Z,99682.25
2023-03-31T10:58:23.557Z,99683.68
2023-03-31T11:02:02.856Z,99683.16
2023-03-31T11:05:46.656Z,99684.55
2023-03-31T11:09:40.911Z,99684.67
2023-03-31T11:13:18.611Z,99679.55
2023-03-31T11:17:04.408Z,99681.61
2023-03-31T11:20:20.061Z,99686.83
2023-03-31T11:24:07.829Z,99687.39
2023-03-31T11:27:51.357Z,99688.10
2023-03-31T11:31:24.686Z,99687.09
2023-03-31T11:34:47.406Z,99682.60
2023-03-31T11:38:42.666Z,99680.71
2023-03-31T11:42:06.329Z,99676.39
2023-03-31T11:45:50.213Z,99672.73
2023-03-31T11:49:21.584Z,99670.64
2023-03-31T11:53:30.600Z,99668.02
2023-03-31T11:56:38.456Z,99668.20
2023-03-31T12:00:17.557Z,99667.54
2023-03-31T12:04:30.960Z,99662.34
2023-03-31T12:07:41.982Z,99659.76
2023-03-31T12:11:19.849Z,99660.67
2023-03-31T12:14:58.005Z,99660.16
2023-03-31T12:18:26.933Z,99655.48
2023-03-31T12:22:28.834Z,99653.20
2023-03-31T12:25:52.797Z,99648.73
2023-03-31T12:29:31.039Z,99644.33
2023-03-31T12:33:06.693Z,99644.66
2023-03-31T12:37:11.429Z,99643.08
2023-03-31T12:40:31.662Z,99639.59
2023-03-31T12:44:13.046Z,99637.98
2023-03-31T12:47:41.564Z,99631.23
2023-03-31T12:51:44.054Z,99632.50
2023-03-31T12:55:24.127Z,99633.02
2023-03-31T12:58:41.804Z,99633.36
2023-03-31T13:02:16.946Z,99631.47
2023-03-31T13:05:54.470Z,99633.79
2023-03-31T13:09:32.045Z,99629.52
2023-03-31T13:13:17.297Z,99631.39
2023-03-31T13:20:42.984Z,99631.87
2023-03-31T13:24:03.328Z,99629.27
2023-03-31T13:27:50.252Z,99627.23
2023-03-31T13:31:18.376Z,99621.38
2023-03-31T13:35:17.954Z,99623.77
2023-03-31T13:39:15.537Z,99621.35
2023-03-31T13:42:38.058Z,99612.21
2023-03-31T13:46:02.713Z,99613.36
2023-03-31T13:49:54.403Z,99611.57
2023-03-31T13:53:32.812Z,99607.13
2023-03-31T13:57:05.816Z,99610.84
2023-03-31T14:00:54.968Z,99605.45
2023-03-31T14:04:27.371Z,99602.70
2023-03-31T14:08:02.442Z,99602.08
2023-03-31T14:11:32.105Z,99596.89
2023-03-31T14:14:55.475Z,99593.23
2023-03-31T14:18:36.059Z,99592.14
2023-03-31T14:22:23.246Z,99590.11
2023-03-31T14:26:16.120Z,99587.89
2023-03-31T14:29:47.672Z,99593.46
2023-03-31T14:33:22.298Z,99591.90
2023-03-31T14:36:58.136Z,99596.45
2023-03-31T14:40:20.537Z,99594.20
2023-03-31T14:44:01.023Z,99592.65
2023-03-31T14:47:34.888Z,99592.41
2023-03-31T14:51:15.757Z,99586.02
2023-03-31T14:54:53.877Z,99586.36
2023-03-31T14:58:32.558Z,99584.45
2023-03-31T15:02:06.742Z,99585.02
2023-03-31T15:05:44.461Z,99590.98
2023-03-31T15:09:36.483Z,99589.29
2023-03-31T15:13:07.736Z,99586.70
2023-03-31T15:16:42.339Z,99585.35
2023-03-31T15:20:36.125Z,99582.30
2023-03-31T15:23:58.987Z,99579.05
2023-03-31T15:27:37.826Z,99577.14
2023-03-31T15:34:46.628Z,99567.95
2023-03-31T15:38:25.485Z,99565.35
2023-03-31T15:42:03.511Z,99564.52
2023-03-31T15:45:52.667Z,99562.46
2023-03-31T15:49:23.524Z,99562.48
2023-03-31T15:52:56.706Z,99567.40
2023-03-31T15:56:34.835Z,99571.26
2023-03-31T16:00:30.580Z,99572.02
2023-03-31T16:03:46.270Z,99580.23
2023-03-31T16:07:27.389Z,99584.11
2023-03-31T16:11:13.893Z,99585.21
2023-03-31T16:14:48.946Z,99586.11
2023-03-31T16:18:39.599Z,99588.93
2023-03-31T16:21:59.606Z,99585.66
2023-03-31T16:25:32.495Z,99583.06
2023-03-31T16:29:09.113Z,99579.80
2023-03-31T16:33:07.951Z,99573.94
2023-03-31T16:36:25.013Z,99573.42
2023-03-31T16:40:02.722Z,99572.92
2023-03-31T16:43:40.305Z,99575.73
2023-03-31T16:47:27.423Z,99575.20
2023-03-31T16:50:57.681Z,99581.84
2023-03-31T16:54:33.147Z,99581.49
2023-03-31T16:58:11.514Z,99584.85
2023-03-31T17:01:48.279Z,99580.20
2023-03-31T17:05:26.063Z,99582.30
2023-03-31T17:09:03.830Z,99580.02
2023-03-31T17:12:41.739Z,99575.73
2023-03-31T17:19:57.722Z,99576.62
2023-03-31T17:23:35.138Z,99583.77
2023-03-31T17:27:13.779Z,99586.77
2023-03-31T17:30:50.620Z,99593.55
2023-03-31T17:34:27.679Z,99593.05
2023-03-31T17:38:05.757Z,99592.02
2023-03-31T17:41:43.024Z,99590.80
2023-03-31T17:45:20.846Z,99594.13
2023-03-31T17:48:59.329Z,99596.04
2023-03-31T17:52:36.270Z,99597.44
2023-03-31T17:56:14.265Z,99586.30
2023-03-31T17:59:50.968Z,99576.05
2023-03-31T18:03:29.536Z,99569.09
2023-03-31T18:07:07.059Z,99573.09
2023-03-31T18:10:44.573Z,99577.79
2023-03-31T18:14:22.830Z,99583.17
2023-03-31T18:18:00.326Z,99585.80
2023-03-31T18:21:37.488Z,99585.11
2023-03-31T18:25:16.048Z,99582.33
2023-03-31T18:28:52.983Z,99582.34
2023-03-31T18:32:31.836Z,99587.72
2023-03-31T18:36:14.167Z,99589.10
2023-03-31T18:39:46.306Z,99591.88
2023-03-31T18:43:25.020Z,99597.46
2023-03-31T18:47:01.154Z,99595.20
2023-03-31T18:50:38.393Z,99591.89
2023-03-31T18:54:17.298Z,99591.89
2023-03-31T18:57:53.873Z,99586.34
2023-03-31T19:01:33.111Z,99583.55
2023-03-31T19:05:09.925Z,99587.02
2023-03-31T19:08:47.423Z,99587.54
2023-03-31T19:12:24.734Z,99589.45
2023-03-31T19:16:04.923Z,99581.64
2023-03-31T19:19:43.911Z,99582.67
2023-03-31T19:23:18.101Z,99585.64
2023-03-31T19:26:57.352Z,99595.73
2023-03-31T19:30:33.592Z,99593.63
2023-03-31T19:34:11.998Z,99595.02
2023-03-31T19:37:49.916Z,99597.62
2023-03-31T19:41:27.675Z,99597.80
2023-03-31T19:45:04.269Z,99603.20
2023-03-31T19:48:42.745Z,99596.59
2023-03-31T19:52:19.237Z,99592.23
2023-03-31T19:55:59.584Z,99585.30
2023-03-31T19:59:34.429Z,99585.96
2023-03-31T20:03:12.524Z,99582.84
2023-03-31T20:06:49.862Z,99584.22
2023-03-31T20:10:27.640Z,99581.95
2023-03-31T20:14:05.796Z,99578.80
2023-03-31T20:17:44.069Z,99570.64
2023-03-31T20:21:23.729Z,99570.98
2023-03-31T20:24:58.662Z,99573.76
2023-03-31T20:28:38.526Z,99578.46
2023-03-31T20:32:17.437Z,99584.00
2023-03-31T20:36:08.631Z,99581.57
2023-03-31T20:39:29.008Z,99579.48
2023-03-31T20:43:06.879Z,99585.23
2023-03-31T20:46:45.086Z,99585.05
2023-03-31T20:50:23.145Z,99587.84
2023-03-31T20:54:01.472Z,99594.27
2023-03-31T20:57:37.886Z,99596.88
2023-03-31T21:01:16.618Z,99598.43
2023-03-31T21:04:53.368Z,99595.47
2023-03-31T21:08:30.868Z,99592.20
2023-03-31T21:12:08.797Z,99596.88
2023-03-31T21:15:51.016Z,99596.88
2023-03-31T21:19:27.091Z,99590.09
2023-03-31T21:23:01.607Z,99586.08
2023-03-31T21:26:38.874Z,99585.72
2023-03-31T21:30:16.272Z,99591.24
2023-03-31T21:33:56.816Z,99591.23
2023-03-31T21:37:32.200Z,99590.14
2023-03-31T21:41:20.950Z,99585.41
2023-03-31T21:44:46.875Z,99581.04
2023-03-31T21:48:26.579Z,99578.41
2023-03-31T21:52:01.803Z,99579.05
2023-03-31T21:55:39.892Z,99579.18
2023-03-31T21:59:17.380Z,99575.52
2023-03-31T22:03:06.276Z,99575.63
2023-03-31T22:06:34.851Z,99574.02
2023-03-31T22:10:12.738Z,99575.88
2023-03-31T22:13:48.040Z,99573.73
2023-03-31T22:17:27.068Z,99584.61
2023-03-31T22:21:03.807Z,99593.55
2023-03-31T22:24:41.743Z,99601.15
2023-03-31T22:28:19.111Z,99601.14
2023-03-31T22:31:57.040Z,99600.61
2023-03-31T22:35:34.910Z,99602.84
2023-03-31T22:39:12.371Z,99595.73
2023-03-31T22:42:50.178Z,99594.14
2023-03-31T22:46:27.406Z,99594.46
2023-03-31T22:50:06.214Z,99595.16
2023-03-31T22:53:43.050Z,99593.42
2023-03-31T22:57:20.291Z,99592.39
2023-03-31T23:00:59.391Z,99587.34
2023-03-31T23:04:35.529Z,99592.34
2023-03-31T23:08:13.189Z,99593.52
2023-03-31T23:11:51.446Z,99592.27
2023-03-31T23:15:28.868Z,99592.61
2023-03-31T23:19:07.081Z,99598.33
2023-03-31T23:22:43.894Z,99603.29
2023-03-31T23:26:24.033Z,99605.00
2023-03-31T23:29:59.193Z,99605.52
2023-03-31T23:33:37.010Z,99605.15
2023-03-31T23:37:15.855Z,99604.27
2023-03-31T23:40:52.637Z,99601.14
2023-03-31T23:44:30.591Z,99600.77
2023-03-31T23:48:07.844Z,99601.59
2023-03-31T23:51:45.105Z,99598.33
2023-03-31T23:55:23.501Z,99598.86
2023-03-31T23:59:00.809Z,99600.59
